Dauntless Aviation
Airports Europe Germany
EDSW

Altdorf-Wallburg Airport

Altdorf, GERMANY

Airport Info
Suggest Updated Information for this Airport

Location

Latitude / Longitude: 48°16'12"N / 7°50'30"E
  48°16.2'N / 7°50.514'E
  48.2700 / 7.8419
Satellite photo at:
Airport distance calculator
From:
Weather Reports

METAR

EDTL
5.8nm NW
EDTL 230750Z 21002KT CAVOK 17/16 Q1017
LFST
18.2nm NW
LFST 230800Z AUTO VRB02KT CAVOK 19/13 Q1017 NOSIG
LFGA
22.2nm SW
LFGA 230800Z AUTO 09003KT CAVOK 18/13 Q1017
EDSB
32.3nm N
EDSB 230750Z VRB02KT CAVOK 18/14 Q1017

TAF

EDTL
5.8nm NW
TAF EDTL 230614Z 2307/2315 VRB03KT CAVOK TEMPO 2309/2315 35005KT
LFST
18.2nm NW
TAF LFST 230500Z 2306/2406 VRB03KT CAVOK PROB30 TEMPO 2310/2318 -SHRA FEW100TCU BKN110 TEMPO 2403/2406 24006KT
EDSB
32.3nm N
TAF EDSB 230500Z 2306/2406 VRB03KT CAVOK TEMPO 2309/2316 35005KT PROB30 TEMPO 2323/2402 26015G25KT -TSRA SCT030 BKN060CB
Safelog

 

Dauntless Aviation

© 2007-2017 Dauntless Aviation, all rights reserved
Information provided via PilotNav comes from a variety of official and unofficial data sources. As errors are possible, do not use PilotNav for primary flight planning purposes. Verify any information that you receive via PilotNav with current and canonical charts and other official documents. The material in this database is subject to database copyrights held by Dauntless Aviation and may not be copied without the express permission of Dauntless Aviation - licenses for use of part of all of this data are available for purchase; enquire via the Dauntless Aviation helpdesk. A number of mechanisms and markers exist in the database to protect against and identify infringement / copyright. Automated queries against this website are stictly prohibited, and all activity is logged and analyzed.